createdAt,value
2022-12-25T00:01:33.637Z,85.07
2022-12-25T00:04:02.349Z,85.04
2022-12-25T00:06:31.087Z,85.15
2022-12-25T00:09:01.193Z,85.08
2022-12-25T00:11:29.904Z,85.03
2022-12-25T00:13:58.613Z,85.12
2022-12-25T00:16:28.818Z,85.08
2022-12-25T00:18:59.020Z,85.15
2022-12-25T00:21:30.239Z,85.14
2022-12-25T00:24:06.148Z,85.08
2022-12-25T00:26:34.733Z,85.04
2022-12-25T00:29:03.390Z,84.91
2022-12-25T00:31:36.393Z,84.98
2022-12-25T00:34:10.261Z,84.87
2022-12-25T00:36:42.231Z,84.80
2022-12-25T00:39:12.504Z,84.75
2022-12-25T00:41:58.650Z,84.74
2022-12-25T00:44:28.441Z,84.89
2022-12-25T00:46:58.405Z,84.78
2022-12-25T00:49:31.292Z,84.88
2022-12-25T00:51:59.889Z,84.86
2022-12-25T00:54:31.162Z,84.98
2022-12-25T00:56:59.756Z,85.02
2022-12-25T00:59:28.452Z,84.95
2022-12-25T01:02:17.230Z,85.06
2022-12-25T01:04:46.047Z,85.05
2022-12-25T01:07:16.955Z,85.03
2022-12-25T01:10:06.219Z,85.02
2022-12-25T01:12:38.978Z,84.95
2022-12-25T01:15:10.779Z,85.01
2022-12-25T01:17:39.634Z,85.07
2022-12-25T01:20:09.919Z,85.14
2022-12-25T01:22:38.689Z,85.27
2022-12-25T01:25:10.652Z,85.18
2022-12-25T01:27:39.927Z,85.48
2022-12-25T01:30:10.183Z,85.43
2022-12-25T01:32:38.923Z,85.59
2022-12-25T01:35:08.697Z,85.44
2022-12-25T01:37:37.418Z,85.57
2022-12-25T01:40:09.795Z,85.56
2022-12-25T01:42:38.588Z,85.71
2022-12-25T01:45:37.513Z,85.78
2022-12-25T01:48:13.004Z,85.83
2022-12-25T01:50:47.232Z,85.83
2022-12-25T01:53:16.134Z,85.95
2022-12-25T01:55:50.668Z,85.96
2022-12-25T01:58:20.127Z,86.10
2022-12-25T02:00:49.174Z,85.98
2022-12-25T02:03:18.615Z,85.99
2022-12-25T02:05:49.450Z,86.01
2022-12-25T02:08:21.802Z,86.01
2022-12-25T02:10:52.055Z,85.95
2022-12-25T02:13:22.053Z,85.92
2022-12-25T02:16:02.463Z,86.01
2022-12-25T02:18:43.474Z,86.00
2022-12-25T02:21:52.078Z,86.07
2022-12-25T02:25:10.746Z,85.98
2022-12-25T02:28:13.357Z,85.94
2022-12-25T02:30:53.859Z,86.12
2022-12-25T02:33:48.081Z,86.06
2022-12-25T02:36:25.821Z,86.14
2022-12-25T02:39:19.702Z,86.22
2022-12-25T02:41:54.967Z,86.28
2022-12-25T02:44:45.889Z,86.57
2022-12-25T02:47:33.141Z,86.66
2022-12-25T02:50:23.380Z,86.63
2022-12-25T02:53:21.013Z,86.58
2022-12-25T02:56:11.571Z,86.67
2022-12-25T02:59:01.346Z,86.77
2022-12-25T03:01:53.171Z,86.69
2022-12-25T03:04:44.556Z,86.46
2022-12-25T03:07:17.476Z,86.36
2022-12-25T03:10:13.018Z,86.17
2022-12-25T03:12:50.081Z,85.94
2022-12-25T03:15:50.254Z,85.96
2022-12-25T03:18:30.348Z,86.08
2022-12-25T03:21:17.003Z,85.93
2022-12-25T03:24:17.460Z,86.05
2022-12-25T03:26:58.832Z,85.94
2022-12-25T03:30:05.004Z,85.82
2022-12-25T03:32:51.513Z,85.80
2022-12-25T03:35:35.109Z,85.60
2022-12-25T03:38:41.629Z,85.57
2022-12-25T03:41:38.317Z,85.46
2022-12-25T03:44:34.876Z,85.39
2022-12-25T03:47:39.094Z,85.36
2022-12-25T03:50:34.290Z,85.44
2022-12-25T03:53:28.489Z,85.61
2022-12-25T03:56:17.591Z,85.54
2022-12-25T03:59:11.146Z,85.46
2022-12-25T04:01:57.402Z,85.48
2022-12-25T04:04:58.252Z,85.54
2022-12-25T04:07:44.065Z,85.55
2022-12-25T04:10:31.337Z,85.66
2022-12-25T04:13:17.561Z,85.76
2022-12-25T04:16:09.341Z,85.80
2022-12-25T04:18:55.449Z,85.96
2022-12-25T04:21:44.855Z,85.78
2022-12-25T04:24:31.646Z,85.65
2022-12-25T04:27:19.103Z,85.55
2022-12-25T04:30:04.943Z,85.61
2022-12-25T04:32:50.964Z,85.72
2022-12-25T04:35:36.948Z,85.67
2022-12-25T04:38:05.676Z,85.53
2022-12-25T04:40:34.263Z,85.38
2022-12-25T04:43:04.268Z,85.39
2022-12-25T04:45:32.902Z,85.50
2022-12-25T04:48:01.736Z,85.51
2022-12-25T04:50:30.432Z,85.44
2022-12-25T04:52:59.064Z,85.38
2022-12-25T04:55:27.675Z,85.26
2022-12-25T04:57:56.572Z,85.25
2022-12-25T05:00:26.692Z,85.34
2022-12-25T05:02:55.415Z,85.39
2022-12-25T05:05:24.096Z,85.33
2022-12-25T05:07:52.933Z,85.44
2022-12-25T05:10:21.746Z,85.45
2022-12-25T05:12:50.550Z,85.40
2022-12-25T05:15:19.528Z,85.38
2022-12-25T05:17:51.361Z,85.43
2022-12-25T05:20:20.243Z,85.38
2022-12-25T05:22:48.823Z,85.34
2022-12-25T05:25:17.727Z,85.22
2022-12-25T05:27:52.063Z,85.28
2022-12-25T05:30:22.480Z,85.31
2022-12-25T05:32:52.489Z,85.31
2022-12-25T05:35:21.247Z,85.27
2022-12-25T05:37:50.001Z,85.21
2022-12-25T05:40:18.859Z,85.30
2022-12-25T05:42:47.474Z,85.38
2022-12-25T05:45:16.303Z,85.35
2022-12-25T05:47:44.925Z,85.34
2022-12-25T05:50:14.969Z,85.33
2022-12-25T05:52:43.592Z,85.35
2022-12-25T05:55:12.234Z,85.35
2022-12-25T05:57:41.409Z,85.33
2022-12-25T06:00:11.529Z,85.27
2022-12-25T06:02:44.379Z,85.24
2022-12-25T06:05:14.467Z,85.21
2022-12-25T06:07:43.200Z,85.21
2022-12-25T06:10:12.416Z,85.27
2022-12-25T06:12:41.557Z,85.11
2022-12-25T06:15:11.366Z,85.13
2022-12-25T06:17:40.114Z,85.14
2022-12-25T06:20:10.863Z,85.09
2022-12-25T06:22:40.916Z,85.04
2022-12-25T06:25:10.905Z,85.08
2022-12-25T06:27:39.602Z,84.93
2022-12-25T06:30:10.376Z,85.09
2022-12-25T06:32:39.065Z,85.09
2022-12-25T06:35:08.885Z,85.15
2022-12-25T06:37:37.589Z,84.94
2022-12-25T06:40:09.898Z,85.04
2022-12-25T06:42:38.636Z,85.11
2022-12-25T06:45:08.393Z,85.15
2022-12-25T06:47:38.119Z,85.21
2022-12-25T06:50:08.839Z,85.23
2022-12-25T06:52:37.428Z,85.21
2022-12-25T06:55:08.521Z,85.28
2022-12-25T06:57:37.230Z,85.21
2022-12-25T07:00:08.138Z,85.15
2022-12-25T07:02:39.914Z,85.10
2022-12-25T07:05:15.325Z,85.10
2022-12-25T07:07:43.980Z,85.05
2022-12-25T07:10:14.258Z,85.02
2022-12-25T07:12:42.916Z,85.00
2022-12-25T07:15:12.366Z,85.01
2022-12-25T07:17:41.084Z,84.95
2022-12-25T07:20:11.004Z,84.80
2022-12-25T07:22:39.638Z,84.93
2022-12-25T07:25:09.432Z,84.87
2022-12-25T07:27:39.519Z,84.92
2022-12-25T07:30:10.202Z,84.93
2022-12-25T07:32:38.968Z,84.90
2022-12-25T07:35:08.381Z,84.97
2022-12-25T07:37:37.015Z,85.07
2022-12-25T07:40:07.398Z,84.93
2022-12-25T07:42:36.063Z,84.79
2022-12-25T07:45:10.529Z,84.98
2022-12-25T07:47:39.768Z,84.75
2022-12-25T07:50:09.880Z,84.77
2022-12-25T07:52:43.376Z,84.77
2022-12-25T07:55:12.407Z,84.63
2022-12-25T07:57:41.587Z,84.53
2022-12-25T08:00:13.776Z,84.43
2022-12-25T08:02:42.587Z,84.34
2022-12-25T08:05:11.702Z,84.32
2022-12-25T08:07:40.419Z,84.27
2022-12-25T08:10:10.099Z,84.36
2022-12-25T08:12:38.804Z,84.22
2022-12-25T08:15:08.919Z,84.20
2022-12-25T08:17:38.927Z,84.14
2022-12-25T08:20:09.693Z,84.23
2022-12-25T08:22:38.378Z,84.17
2022-12-25T08:25:07.459Z,84.08
2022-12-25T08:27:36.438Z,84.13
2022-12-25T08:30:06.101Z,84.08
2022-12-25T08:32:35.454Z,83.79
2022-12-25T08:35:06.213Z,83.72
2022-12-25T08:37:34.941Z,83.83
2022-12-25T08:40:03.621Z,83.74
2022-12-25T08:42:32.437Z,83.60
2022-12-25T08:45:01.129Z,83.63
2022-12-25T08:47:31.930Z,83.45
2022-12-25T08:50:00.659Z,83.51
2022-12-25T08:52:33.011Z,83.40
2022-12-25T08:55:01.792Z,83.46
2022-12-25T08:57:31.852Z,83.50
2022-12-25T09:00:00.472Z,83.41
2022-12-25T09:02:29.570Z,83.39
2022-12-25T09:04:58.487Z,83.31
2022-12-25T09:07:27.229Z,83.24
2022-12-25T09:09:57.311Z,83.22
2022-12-25T09:12:26.087Z,83.18
2022-12-25T09:14:54.753Z,83.14
2022-12-25T09:17:23.356Z,82.90
2022-12-25T09:19:52.026Z,82.98
2022-12-25T09:22:20.703Z,82.94
2022-12-25T09:24:49.407Z,82.89
2022-12-25T09:27:19.546Z,82.94
2022-12-25T09:29:48.249Z,82.94
2022-12-25T09:32:17.021Z,82.85
2022-12-25T09:34:45.651Z,82.83
2022-12-25T09:37:14.288Z,82.96
2022-12-25T09:39:46.282Z,82.62
2022-12-25T09:42:21.412Z,82.41
2022-12-25T09:44:56.049Z,82.37
2022-12-25T09:47:30.319Z,82.22
2022-12-25T09:50:08.139Z,82.13
2022-12-25T09:52:44.694Z,82.24
2022-12-25T09:55:20.525Z,82.25
2022-12-25T09:57:54.391Z,82.29
2022-12-25T10:00:26.798Z,82.30
2022-12-25T10:03:48.934Z,82.19
2022-12-25T10:06:23.728Z,82.26
2022-12-25T10:09:23.943Z,82.35
2022-12-25T10:12:24.055Z,82.44
2022-12-25T10:15:14.473Z,82.49
2022-12-25T10:18:22.808Z,82.44
2022-12-25T10:20:54.990Z,82.53
2022-12-25T10:23:29.857Z,82.44
2022-12-25T10:25:58.685Z,82.22
2022-12-25T10:28:36.188Z,82.11
2022-12-25T10:31:21.212Z,82.06
2022-12-25T10:33:52.243Z,81.81
2022-12-25T10:36:23.822Z,81.60
2022-12-25T10:38:53.619Z,81.69
2022-12-25T10:41:42.612Z,81.65
2022-12-25T10:44:16.808Z,81.59
2022-12-25T10:46:51.251Z,81.70
2022-12-25T10:49:25.043Z,81.64
2022-12-25T10:51:53.777Z,81.78
2022-12-25T10:54:26.559Z,81.75
2022-12-25T10:57:01.212Z,81.83
2022-12-25T10:59:35.368Z,81.81
2022-12-25T11:02:26.559Z,81.39
2022-12-25T11:05:03.733Z,81.13
2022-12-25T11:07:34.356Z,81.02
2022-12-25T11:11:06.276Z,80.89
2022-12-25T11:14:28.173Z,80.56
2022-12-25T11:17:11.274Z,80.54
2022-12-25T11:19:39.970Z,80.32
2022-12-25T11:22:19.986Z,80.50
2022-12-25T11:24:48.751Z,80.41
2022-12-25T11:27:25.985Z,80.23
2022-12-25T11:30:00.856Z,80.43
2022-12-25T11:32:39.011Z,80.37
2022-12-25T11:35:14.900Z,80.37
2022-12-25T11:37:49.270Z,80.27
2022-12-25T11:40:23.575Z,80.23
2022-12-25T11:43:04.165Z,80.31
2022-12-25T11:45:42.686Z,80.45
2022-12-25T11:48:19.277Z,80.51
2022-12-25T11:50:54.554Z,80.53
2022-12-25T11:53:31.600Z,80.68
2022-12-25T11:56:07.399Z,80.78
2022-12-25T11:58:43.398Z,80.74
2022-12-25T12:01:35.366Z,80.95
2022-12-25T12:04:15.995Z,81.07
2022-12-25T12:06:53.564Z,81.26
2022-12-25T12:09:41.555Z,81.35
2022-12-25T12:12:19.099Z,81.39
2022-12-25T12:15:00.095Z,81.46
2022-12-25T12:17:29.011Z,81.76
2022-12-25T12:20:00.342Z,81.62
2022-12-25T12:22:30.112Z,81.48
2022-12-25T12:25:06.327Z,81.57
2022-12-25T12:27:38.723Z,81.70
2022-12-25T12:30:23.321Z,81.62
2022-12-25T12:32:55.554Z,81.79
2022-12-25T12:35:30.725Z,81.98
2022-12-25T12:38:05.396Z,82.15
2022-12-25T12:40:38.773Z,82.34
2022-12-25T12:43:27.502Z,82.41
2022-12-25T12:45:59.369Z,82.50
2022-12-25T12:48:31.035Z,82.70
2022-12-25T12:51:10.671Z,82.86
2022-12-25T12:53:41.683Z,82.96
2022-12-25T12:56:18.920Z,83.01
2022-12-25T12:58:52.007Z,83.35
2022-12-25T13:01:49.478Z,83.45
2022-12-25T13:04:55.026Z,83.70
2022-12-25T13:07:45.058Z,83.81
2022-12-25T13:10:26.447Z,83.84
2022-12-25T13:13:04.110Z,83.96
2022-12-25T13:15:56.112Z,84.04
2022-12-25T13:18:25.358Z,84.39
2022-12-25T13:21:31.349Z,84.34
2022-12-25T13:24:10.614Z,84.43
2022-12-25T13:26:41.307Z,84.62
2022-12-25T13:29:38.412Z,84.76
2022-12-25T13:32:27.451Z,84.58
2022-12-25T13:34:59.736Z,84.65
2022-12-25T13:37:33.159Z,84.59
2022-12-25T13:40:08.457Z,84.73
2022-12-25T13:42:39.982Z,84.77
2022-12-25T13:45:24.069Z,84.69
2022-12-25T13:47:55.449Z,84.78
2022-12-25T13:50:27.481Z,84.75
2022-12-25T13:52:59.419Z,84.59
2022-12-25T13:55:31.364Z,84.69
2022-12-25T13:58:04.029Z,84.70
2022-12-25T14:00:37.794Z,84.76
2022-12-25T14:03:09.081Z,84.69
2022-12-25T14:05:43.247Z,84.75
2022-12-25T14:08:20.607Z,84.93
2022-12-25T14:11:25.019Z,85.08
2022-12-25T14:14:03.471Z,85.10
2022-12-25T14:16:32.606Z,85.17
2022-12-25T14:19:03.681Z,85.15
2022-12-25T14:21:38.408Z,85.16
2022-12-25T14:24:15.802Z,85.21
2022-12-25T14:26:46.139Z,85.25
2022-12-25T14:29:25.031Z,85.26
2022-12-25T14:32:00.598Z,85.41
2022-12-25T14:34:32.400Z,85.45
2022-12-25T14:37:02.713Z,85.50
2022-12-25T14:39:38.417Z,85.56
2022-12-25T14:42:21.583Z,85.67
2022-12-25T14:45:04.503Z,85.78
2022-12-25T14:47:41.111Z,85.59
2022-12-25T14:50:26.521Z,85.65
2022-12-25T14:52:55.928Z,85.67
2022-12-25T14:55:28.288Z,85.87
2022-12-25T14:58:04.590Z,85.77
2022-12-25T15:00:36.613Z,85.80
2022-12-25T15:03:08.938Z,85.79
2022-12-25T15:05:40.545Z,85.92
2022-12-25T15:08:25.836Z,85.88
2022-12-25T15:11:01.025Z,85.83
2022-12-25T15:13:32.771Z,85.96
2022-12-25T15:16:10.454Z,85.95
2022-12-25T15:18:43.436Z,85.86
2022-12-25T15:21:18.978Z,85.95
2022-12-25T15:23:47.969Z,85.95
2022-12-25T15:26:17.367Z,86.09
2022-12-25T15:28:47.537Z,86.12
2022-12-25T15:31:25.229Z,86.10
2022-12-25T15:33:55.337Z,86.21
2022-12-25T15:36:25.233Z,86.22
2022-12-25T15:38:54.825Z,86.23
2022-12-25T15:41:46.294Z,86.27
2022-12-25T15:44:17.537Z,86.34
2022-12-25T15:46:47.046Z,86.40
2022-12-25T15:49:17.617Z,86.34
2022-12-25T15:51:47.166Z,86.40
2022-12-25T15:54:15.859Z,86.39
2022-12-25T15:56:49.000Z,86.25
2022-12-25T15:59:21.383Z,86.42
2022-12-25T16:01:52.750Z,86.35
2022-12-25T16:04:23.081Z,86.32
2022-12-25T16:06:53.047Z,86.25
2022-12-25T16:09:22.828Z,86.26
2022-12-25T16:11:51.922Z,86.28
2022-12-25T16:14:23.426Z,86.34
2022-12-25T16:16:52.272Z,86.22
2022-12-25T16:19:47.107Z,86.18
2022-12-25T16:22:23.101Z,86.06
2022-12-25T16:24:51.839Z,86.23
2022-12-25T16:27:20.591Z,86.13
2022-12-25T16:29:50.629Z,86.14
2022-12-25T16:32:19.229Z,86.16
2022-12-25T16:34:50.228Z,86.15
2022-12-25T16:37:20.114Z,86.09
2022-12-25T16:39:50.314Z,86.03
2022-12-25T16:42:21.664Z,85.94
2022-12-25T16:44:52.114Z,86.06
2022-12-25T16:47:23.257Z,86.10
2022-12-25T16:49:54.204Z,86.06
2022-12-25T16:52:27.370Z,86.08
2022-12-25T16:54:56.383Z,86.00
2022-12-25T16:57:25.091Z,85.97
2022-12-25T16:59:55.616Z,85.87
2022-12-25T17:02:24.477Z,85.81
2022-12-25T17:04:53.765Z,85.87
2022-12-25T17:07:22.662Z,85.78
2022-12-25T17:09:53.984Z,85.78
2022-12-25T17:12:22.709Z,85.70
2022-12-25T17:14:51.331Z,85.81
2022-12-25T17:17:21.405Z,85.65
2022-12-25T17:19:50.091Z,85.64
2022-12-25T17:22:27.167Z,85.61
2022-12-25T17:24:55.815Z,85.66
2022-12-25T17:27:24.817Z,85.57
2022-12-25T17:29:55.208Z,85.61
2022-12-25T17:32:25.312Z,85.58
2022-12-25T17:34:53.930Z,85.57
2022-12-25T17:37:22.614Z,85.81
2022-12-25T17:39:53.089Z,85.66
2022-12-25T17:42:21.777Z,85.67
2022-12-25T17:44:51.181Z,85.49
2022-12-25T17:47:22.383Z,85.66
2022-12-25T17:49:56.243Z,85.49
2022-12-25T17:52:25.659Z,85.56
2022-12-25T17:54:55.760Z,85.49
2022-12-25T17:57:24.451Z,85.44
2022-12-25T17:59:53.060Z,85.42
2022-12-25T18:02:21.958Z,85.40
2022-12-25T18:04:50.987Z,85.40
2022-12-25T18:07:21.079Z,85.44
2022-12-25T18:09:49.845Z,85.39
2022-12-25T18:12:18.492Z,85.42
2022-12-25T18:14:49.717Z,85.49
2022-12-25T18:17:18.310Z,85.41
2022-12-25T18:19:48.330Z,85.54
2022-12-25T18:22:17.162Z,85.60
2022-12-25T18:24:47.237Z,85.59
2022-12-25T18:27:16.613Z,85.72
2022-12-25T18:29:45.407Z,85.63
2022-12-25T18:32:14.171Z,85.44
2022-12-25T18:34:42.823Z,85.35
2022-12-25T18:37:11.674Z,85.38
2022-12-25T18:39:40.309Z,85.53
2022-12-25T18:42:27.818Z,85.53
2022-12-25T18:44:56.687Z,85.53
2022-12-25T18:47:25.412Z,85.43
2022-12-25T18:49:54.050Z,85.55
2022-12-25T18:52:49.080Z,85.73
2022-12-25T18:55:12.258Z,85.60
2022-12-25T18:57:43.149Z,85.56
2022-12-25T19:00:12.773Z,85.43
2022-12-25T19:02:41.972Z,85.50
2022-12-25T19:05:11.706Z,85.71
2022-12-25T19:07:40.557Z,85.67
2022-12-25T19:10:10.752Z,85.80
2022-12-25T19:12:39.597Z,85.69
2022-12-25T19:15:13.487Z,85.61
2022-12-25T19:17:42.261Z,85.54
2022-12-25T19:20:13.408Z,85.63
2022-12-25T19:22:42.217Z,85.54
2022-12-25T19:25:11.387Z,85.56
2022-12-25T19:27:41.701Z,85.48
2022-12-25T19:30:13.882Z,85.55
2022-12-25T19:32:42.873Z,85.49
2022-12-25T19:35:11.766Z,85.50
2022-12-25T19:37:40.717Z,85.55
2022-12-25T19:40:10.802Z,85.67
2022-12-25T19:42:39.453Z,85.62
2022-12-25T19:45:11.856Z,85.67
2022-12-25T19:47:44.312Z,85.73
2022-12-25T19:56:11.038Z,85.86
2022-12-25T19:58:40.248Z,86.00
2022-12-25T20:01:13.824Z,85.95
2022-12-25T20:03:46.424Z,86.06
2022-12-25T20:06:23.309Z,86.17
2022-12-25T20:08:54.773Z,86.28
2022-12-25T20:11:27.439Z,86.25
2022-12-25T20:13:57.154Z,86.15
2022-12-25T20:16:27.747Z,86.19
2022-12-25T20:18:57.127Z,86.10
2022-12-25T20:21:27.791Z,86.17
2022-12-25T20:23:57.119Z,86.23
2022-12-25T20:26:29.553Z,86.17
2022-12-25T20:28:59.680Z,86.21
2022-12-25T20:31:32.056Z,86.39
2022-12-25T20:34:06.388Z,86.28
2022-12-25T20:36:37.727Z,86.33
2022-12-25T20:39:10.060Z,86.27
2022-12-25T20:41:40.622Z,86.16
2022-12-25T20:44:10.868Z,86.22
2022-12-25T20:46:41.008Z,86.27
2022-12-25T20:49:10.546Z,86.34
2022-12-25T20:51:39.363Z,86.28
2022-12-25T20:54:09.779Z,86.20
2022-12-25T20:56:38.770Z,86.24
2022-12-25T20:59:07.619Z,86.20
2022-12-25T21:01:36.356Z,86.37
2022-12-25T21:04:11.521Z,86.31
2022-12-25T21:06:43.362Z,86.26
2022-12-25T21:09:12.040Z,86.28
2022-12-25T21:11:40.816Z,86.36
2022-12-25T21:14:12.527Z,86.23
2022-12-25T21:16:41.265Z,86.37
2022-12-25T21:19:11.643Z,86.23
2022-12-25T21:21:42.815Z,86.16
2022-12-25T21:24:12.073Z,86.07
2022-12-25T21:26:46.136Z,86.00
2022-12-25T21:29:21.351Z,86.00
2022-12-25T21:32:03.966Z,85.98
2022-12-25T21:34:34.152Z,85.98
2022-12-25T21:37:02.852Z,85.81
2022-12-25T21:39:31.543Z,86.01
2022-12-25T21:42:00.588Z,85.93
2022-12-25T21:44:29.266Z,85.90
2022-12-25T21:46:57.918Z,85.96
2022-12-25T21:49:44.150Z,85.93
2022-12-25T21:52:14.238Z,85.87
2022-12-25T21:54:42.873Z,85.82
2022-12-25T21:57:11.535Z,85.74
2022-12-25T21:59:40.359Z,85.69
2022-12-25T22:02:12.135Z,85.99
2022-12-25T22:04:41.197Z,85.84
2022-12-25T22:07:17.403Z,85.80
2022-12-25T22:09:47.102Z,85.81
2022-12-25T22:12:34.847Z,85.78
2022-12-25T22:15:06.668Z,85.81
2022-12-25T22:17:55.678Z,85.69
2022-12-25T22:20:28.026Z,85.69
2022-12-25T22:22:59.079Z,85.70
2022-12-25T22:25:28.304Z,85.67
2022-12-25T22:27:57.573Z,85.66
2022-12-25T22:30:28.994Z,85.62
2022-12-25T22:32:58.376Z,85.61
2022-12-25T22:35:27.346Z,85.61
2022-12-25T22:37:57.700Z,85.54
2022-12-25T22:40:26.323Z,85.50
2022-12-25T22:42:55.835Z,85.46
2022-12-25T22:45:25.979Z,85.49
2022-12-25T22:47:54.670Z,85.54
2022-12-25T22:50:25.502Z,85.48
2022-12-25T22:52:54.213Z,85.43
2022-12-25T22:55:24.268Z,85.31
2022-12-25T22:57:52.918Z,85.41
2022-12-25T23:00:21.845Z,85.40
2022-12-25T23:02:50.615Z,85.42
2022-12-25T23:05:19.466Z,85.47
2022-12-25T23:07:48.098Z,85.48
2022-12-25T23:10:16.755Z,85.54
2022-12-25T23:13:04.758Z,85.61
2022-12-25T23:15:36.064Z,85.89
2022-12-25T23:18:22.171Z,85.83
2022-12-25T23:21:08.225Z,85.74
2022-12-25T23:23:54.374Z,85.77
2022-12-25T23:26:23.728Z,85.76
2022-12-25T23:29:11.680Z,85.78
2022-12-25T23:31:44.881Z,85.78
2022-12-25T23:34:13.938Z,85.94
2022-12-25T23:36:42.739Z,85.76
2022-12-25T23:39:11.703Z,85.76
2022-12-25T23:41:41.917Z,85.72
2022-12-25T23:44:14.082Z,85.58
2022-12-25T23:46:52.633Z,85.49
2022-12-25T23:49:23.898Z,85.60
2022-12-25T23:51:59.750Z,85.87
2022-12-25T23:54:31.286Z,85.75
2022-12-25T23:57:06.727Z,85.77
2022-12-25T23:59:47.770Z,85.61
